Time;durP1;ratioP1;P1;durP2;ratioP2;P2;SDS_P1;SDS_P2;PMS_P1;PMS_P2;Temp;Humidity;BMP_temperature;BMP_pressure;BME280_temperature;BME280_humidity;BME280_pressure;Samples;Min_cycle;Max_cycle;Signal;HPM_P1;HPM_P2
2021/05/28 00:00:14;;;;;;;9.63;3.13;;;;;;;;;;5077731;28;20114;-66
2021/05/28 00:02:39;;;;;;;11.93;3.07;;;;;;;;;;5078562;28;20127;-66
2021/05/28 00:05:04;;;;;;;14.00;2.70;;;;;;;;;;5085799;28;20115;-66
2021/05/28 00:07:30;;;;;;;8.33;2.63;;;;;;;;;;5077736;28;20019;-66
2021/05/28 00:09:55;;;;;;;8.57;2.87;;;;;;;;;;5079063;28;20066;-66
2021/05/28 00:12:20;;;;;;;14.33;3.50;;;;;;;;;;5084401;28;20107;-66
2021/05/28 00:14:46;;;;;;;10.37;2.90;;;;;;;;;;5086376;28;20430;-66
2021/05/28 00:17:11;;;;;;;9.87;3.13;;;;;;;;;;5077959;28;20028;-66
2021/05/28 00:19:36;;;;;;;7.97;3.00;;;;;;;;;;5085836;28;20024;-66
2021/05/28 00:22:01;;;;;;;8.40;2.60;;;;;;;;;;5075534;28;20519;-66
2021/05/28 00:24:27;;;;;;;10.33;3.57;;;;;;;;;;5081238;28;20061;-66
2021/05/28 00:26:52;;;;;;;10.23;3.00;;;;;;;;;;5079987;28;20040;-66
2021/05/28 00:29:18;;;;;;;12.07;3.40;;;;;;;;;;5088306;28;20032;-66
2021/05/28 00:31:43;;;;;;;13.13;3.30;;;;;;;;;;5079595;28;20020;-66
2021/05/28 00:34:08;;;;;;;12.30;3.20;;;;;;;;;;5079493;28;20059;-66
2021/05/28 00:36:33;;;;;;;10.50;3.00;;;;;;;;;;5084249;28;20106;-66
2021/05/28 00:38:59;;;;;;;12.03;3.23;;;;;;;;;;5085539;28;20109;-66
2021/05/28 00:41:24;;;;;;;11.30;3.20;;;;;;;;;;5080128;28;20039;-66
2021/05/28 00:43:49;;;;;;;13.17;2.90;;;;;;;;;;5076806;28;20545;-66
2021/05/28 00:46:15;;;;;;;9.40;3.30;;;;;;;;;;5075823;28;20070;-66
2021/05/28 00:48:40;;;;;;;11.00;3.17;;;;;;;;;;5076025;28;20031;-66
2021/05/28 00:51:06;;;;;;;10.60;3.33;;;;;;;;;;5076823;28;20094;-66
2021/05/28 00:53:31;;;;;;;13.10;3.70;;;;;;;;;;5083320;28;20441;-66
2021/05/28 00:55:58;;;;;;;11.07;3.43;;;;;;;;;;5082887;28;20566;-66
2021/05/28 00:58:24;;;;;;;10.97;3.60;;;;;;;;;;5084818;28;20468;-66
2021/05/28 01:00:49;;;;;;;10.47;3.87;;;;;;;;;;5083791;28;20086;-66
2021/05/28 01:03:15;;;;;;;12.53;3.80;;;;;;;;;;5082987;28;20396;-66
2021/05/28 01:05:40;;;;;;;12.83;4.43;;;;;;;;;;5088131;28;20073;-66
2021/05/28 01:08:05;;;;;;;13.10;3.47;;;;;;;;;;5088972;28;20050;-66
2021/05/28 01:10:30;;;;;;;15.23;3.87;;;;;;;;;;5087271;28;20556;-66
2021/05/28 01:13:09;;;;;;;17.13;4.30;;;;;;;;;;5080648;28;20358;-66
2021/05/28 01:15:35;;;;;;;11.37;3.40;;;;;;;;;;5083616;28;20078;-66
2021/05/28 01:18:00;;;;;;;14.73;3.53;;;;;;;;;;5087147;28;20414;-66
2021/05/28 01:20:25;;;;;;;12.17;3.93;;;;;;;;;;5081033;28;20732;-66
2021/05/28 01:22:52;;;;;;;12.93;3.90;;;;;;;;;;5082395;28;20023;-66
2021/05/28 01:25:18;;;;;;;13.13;3.57;;;;;;;;;;5086892;28;20139;-66
2021/05/28 01:27:44;;;;;;;11.73;4.60;;;;;;;;;;5085058;28;20028;-66
2021/05/28 01:30:10;;;;;;;12.83;4.07;;;;;;;;;;5089087;28;20059;-66
2021/05/28 01:32:35;;;;;;;15.50;4.20;;;;;;;;;;5082838;28;20032;-66
2021/05/28 01:35:00;;;;;;;12.40;4.37;;;;;;;;;;5080981;28;20027;-66
2021/05/28 01:37:26;;;;;;;12.93;3.73;;;;;;;;;;5079200;28;20098;-66
2021/05/28 01:39:52;;;;;;;16.73;3.73;;;;;;;;;;5078608;28;20016;-66
2021/05/28 01:42:18;;;;;;;9.17;3.63;;;;;;;;;;5080910;28;20036;-66
2021/05/28 01:44:44;;;;;;;10.57;3.67;;;;;;;;;;5084992;28;20031;-66
2021/05/28 01:47:09;;;;;;;14.80;4.27;;;;;;;;;;5079117;28;20032;-66
2021/05/28 01:49:39;;;;;;;12.80;4.07;;;;;;;;;;5086928;28;20036;-66
2021/05/28 01:52:04;;;;;;;15.17;4.43;;;;;;;;;;5076501;28;20032;-66
2021/05/28 01:54:29;;;;;;;14.00;4.80;;;;;;;;;;5080922;28;20050;-66
2021/05/28 01:56:55;;;;;;;15.43;4.20;;;;;;;;;;5085400;28;20024;-67
2021/05/28 01:59:24;;;;;;;17.37;5.10;;;;;;;;;;5082826;28;20060;-67
2021/05/28 02:01:50;;;;;;;18.63;4.97;;;;;;;;;;5082167;28;20115;-67
2021/05/28 02:04:15;;;;;;;17.70;5.57;;;;;;;;;;5081232;28;20156;-67
2021/05/28 02:06:40;;;;;;;20.37;5.90;;;;;;;;;;5089389;28;20089;-67
2021/05/28 02:09:06;;;;;;;27.17;6.90;;;;;;;;;;5089789;28;20104;-66
2021/05/28 02:11:31;;;;;;;25.20;7.43;;;;;;;;;;5079200;28;20043;-66
2021/05/28 02:13:56;;;;;;;27.33;7.13;;;;;;;;;;5088887;28;20028;-66
2021/05/28 02:16:22;;;;;;;33.00;8.57;;;;;;;;;;5083275;28;20028;-66
2021/05/28 02:18:47;;;;;;;24.60;7.93;;;;;;;;;;5086388;28;20452;-66
2021/05/28 02:21:12;;;;;;;35.60;7.63;;;;;;;;;;5082653;28;20445;-66
2021/05/28 02:23:37;;;;;;;26.10;7.93;;;;;;;;;;5083825;28;20020;-66
2021/05/28 02:26:03;;;;;;;31.87;9.30;;;;;;;;;;5091630;28;20765;-66
2021/05/28 02:28:28;;;;;;;28.43;9.47;;;;;;;;;;5089638;28;20162;-66
2021/05/28 02:30:53;;;;;;;27.70;8.67;;;;;;;;;;5082163;28;20020;-66
2021/05/28 02:33:18;;;;;;;35.47;9.07;;;;;;;;;;5086280;28;20035;-66
2021/05/28 02:35:44;;;;;;;26.20;8.80;;;;;;;;;;5087146;28;20033;-66
2021/05/28 02:38:09;;;;;;;26.73;9.07;;;;;;;;;;5088259;28;20043;-66
2021/05/28 02:40:34;;;;;;;29.20;9.00;;;;;;;;;;5078885;28;20128;-66
2021/05/28 02:43:00;;;;;;;29.87;8.70;;;;;;;;;;5082118;28;20032;-66
2021/05/28 02:45:25;;;;;;;25.27;8.67;;;;;;;;;;5082445;28;20024;-66
2021/05/28 02:47:50;;;;;;;24.23;8.00;;;;;;;;;;5083496;28;20408;-66
2021/05/28 02:50:15;;;;;;;22.13;8.50;;;;;;;;;;5083804;28;20020;-66
2021/05/28 02:52:41;;;;;;;25.23;8.50;;;;;;;;;;5079044;28;20578;-66
2021/05/28 02:55:06;;;;;;;26.90;9.30;;;;;;;;;;5079940;28;20012;-66
2021/05/28 02:57:31;;;;;;;27.27;9.43;;;;;;;;;;5075760;28;20404;-66
2021/05/28 02:59:57;;;;;;;32.60;9.60;;;;;;;;;;5088293;28;20031;-66
2021/05/28 03:02:22;;;;;;;25.83;9.13;;;;;;;;;;5075464;28;20051;-66
2021/05/28 03:04:47;;;;;;;27.67;10.60;;;;;;;;;;5089089;28;20519;-66
2021/05/28 03:07:13;;;;;;;28.47;10.03;;;;;;;;;;5082999;28;20111;-66
2021/05/28 03:09:39;;;;;;;26.63;10.10;;;;;;;;;;5088253;28;20024;-66
2021/05/28 03:12:05;;;;;;;28.07;9.97;;;;;;;;;;5086729;28;20051;-66
2021/05/28 03:14:30;;;;;;;29.17;9.53;;;;;;;;;;5081428;28;20480;-66
2021/05/28 03:16:55;;;;;;;26.53;9.20;;;;;;;;;;5078236;28;20029;-66
2021/05/28 03:19:24;;;;;;;19.53;8.37;;;;;;;;;;5083338;28;20119;-66
2021/05/28 03:22:32;;;;;;;25.90;9.57;;;;;;;;;;5081081;28;20376;-66
2021/05/28 03:24:38;;;;;;;20.07;9.37;;;;;;;;;;5077864;28;20484;-66
2021/05/28 03:27:03;;;;;;;22.73;8.70;;;;;;;;;;5078886;28;20035;-66
2021/05/28 03:29:28;;;;;;;25.40;10.40;;;;;;;;;;5082476;28;20024;-66
2021/05/28 03:31:53;;;;;;;20.37;8.43;;;;;;;;;;5076441;28;20045;-66
2021/05/28 03:34:19;;;;;;;19.13;8.20;;;;;;;;;;5085118;28;20029;-66
2021/05/28 03:36:44;;;;;;;27.03;9.53;;;;;;;;;;5082707;28;20079;-66
2021/05/28 03:39:09;;;;;;;24.23;8.40;;;;;;;;;;5082140;28;20040;-67
2021/05/28 03:41:37;;;;;;;24.67;9.30;;;;;;;;;;5074454;28;20488;-67
2021/05/28 03:44:03;;;;;;;23.73;8.70;;;;;;;;;;5076745;28;20024;-67
2021/05/28 03:46:28;;;;;;;22.40;9.13;;;;;;;;;;5076819;28;20032;-67
2021/05/28 03:48:53;;;;;;;25.00;9.63;;;;;;;;;;5083875;28;20039;-67
2021/05/28 03:51:20;;;;;;;23.60;9.33;;;;;;;;;;5082439;28;20054;-67
2021/05/28 03:53:45;;;;;;;24.13;9.23;;;;;;;;;;5081507;28;20032;-67
2021/05/28 03:56:10;;;;;;;22.47;9.00;;;;;;;;;;5090536;28;20036;-67
2021/05/28 03:58:36;;;;;;;26.07;9.27;;;;;;;;;;5087978;28;20058;-67
2021/05/28 04:01:01;;;;;;;25.60;10.17;;;;;;;;;;5085889;28;20027;-67
2021/05/28 04:03:26;;;;;;;22.70;9.30;;;;;;;;;;5081988;28;20068;-67
2021/05/28 04:05:52;;;;;;;22.93;8.83;;;;;;;;;;5079989;28;20086;-67
2021/05/28 04:08:17;;;;;;;21.13;8.50;;;;;;;;;;5085636;28;20032;-67
2021/05/28 04:10:42;;;;;;;26.07;9.27;;;;;;;;;;5076820;28;20095;-67
2021/05/28 04:13:07;;;;;;;22.20;9.90;;;;;;;;;;5084093;28;20028;-67
2021/05/28 04:15:33;;;;;;;23.97;9.37;;;;;;;;;;5080411;28;20330;-67
2021/05/28 04:17:59;;;;;;;21.90;8.50;;;;;;;;;;5081458;28;20024;-67
2021/05/28 04:20:24;;;;;;;20.80;8.50;;;;;;;;;;5081546;28;20405;-67
2021/05/28 04:22:49;;;;;;;25.63;9.80;;;;;;;;;;5082295;28;20060;-67
2021/05/28 04:25:14;;;;;;;20.97;9.17;;;;;;;;;;5080704;28;20036;-67
2021/05/28 04:27:40;;;;;;;31.77;9.37;;;;;;;;;;5077264;28;20048;-67
2021/05/28 04:30:06;;;;;;;22.47;8.87;;;;;;;;;;5084231;28;20016;-67
2021/05/28 04:32:31;;;;;;;23.90;9.37;;;;;;;;;;5090192;28;20027;-67
2021/05/28 04:34:57;;;;;;;21.63;9.20;;;;;;;;;;5088763;28;20024;-67
2021/05/28 04:37:23;;;;;;;20.20;8.23;;;;;;;;;;5087613;28;20111;-67
2021/05/28 04:39:48;;;;;;;21.23;8.87;;;;;;;;;;5091834;28;20111;-67
2021/05/28 04:42:13;;;;;;;22.27;8.83;;;;;;;;;;5090406;28;20507;-67
2021/05/28 04:44:38;;;;;;;22.53;9.77;;;;;;;;;;5094125;28;20447;-67
2021/05/28 04:47:04;;;;;;;21.37;9.10;;;;;;;;;;5088761;28;20026;-67
2021/05/28 04:49:29;;;;;;;20.70;9.00;;;;;;;;;;5093328;28;20044;-67
2021/05/28 04:51:54;;;;;;;23.67;9.03;;;;;;;;;;5091489;28;20047;-67
2021/05/28 04:54:20;;;;;;;26.50;9.07;;;;;;;;;;5092800;28;20020;-67
2021/05/28 04:56:45;;;;;;;24.33;8.87;;;;;;;;;;5094642;28;20463;-67
2021/05/28 04:59:10;;;;;;;21.53;8.67;;;;;;;;;;5079828;28;20021;-67
2021/05/28 05:01:36;;;;;;;19.40;8.00;;;;;;;;;;5089240;28;20483;-67
2021/05/28 05:04:01;;;;;;;18.37;7.57;;;;;;;;;;5090187;28;20040;-67
2021/05/28 05:06:26;;;;;;;16.40;7.57;;;;;;;;;;5089067;28;20070;-67
2021/05/28 05:08:52;;;;;;;17.37;6.80;;;;;;;;;;5083490;28;20028;-67
2021/05/28 05:11:17;;;;;;;18.57;7.43;;;;;;;;;;5092263;28;20115;-67
2021/05/28 05:13:42;;;;;;;19.80;7.83;;;;;;;;;;5088329;28;20021;-67
2021/05/28 05:16:08;;;;;;;15.57;7.20;;;;;;;;;;5093062;28;20443;-67
2021/05/28 05:18:33;;;;;;;16.07;7.13;;;;;;;;;;5095014;28;20039;-67
2021/05/28 05:20:58;;;;;;;17.33;7.10;;;;;;;;;;5088065;28;20025;-67
2021/05/28 05:23:23;;;;;;;18.20;6.67;;;;;;;;;;5089498;28;20121;-67
2021/05/28 05:25:49;;;;;;;17.93;7.10;;;;;;;;;;5092147;28;20149;-67
2021/05/28 05:28:14;;;;;;;18.93;7.37;;;;;;;;;;5089959;28;20032;-68
2021/05/28 05:30:39;;;;;;;16.43;6.87;;;;;;;;;;5091825;28;20031;-67
2021/05/28 05:33:05;;;;;;;13.87;6.23;;;;;;;;;;5091216;28;20387;-67
2021/05/28 05:35:31;;;;;;;13.30;6.43;;;;;;;;;;5092466;28;20528;-68
2021/05/28 05:37:56;;;;;;;13.70;6.20;;;;;;;;;;5091296;28;20095;-68
2021/05/28 05:40:21;;;;;;;12.33;6.03;;;;;;;;;;5085784;28;20028;-68
2021/05/28 05:42:47;;;;;;;13.70;5.50;;;;;;;;;;5092261;28;20149;-68
2021/05/28 05:45:13;;;;;;;14.70;6.20;;;;;;;;;;5089704;28;20028;-69
2021/05/28 05:47:38;;;;;;;13.60;6.00;;;;;;;;;;5092554;28;20035;-70
2021/05/28 05:50:04;;;;;;;16.07;6.33;;;;;;;;;;5091859;28;20012;-70
2021/05/28 05:52:30;;;;;;;11.43;5.07;;;;;;;;;;5092154;28;20024;-70
2021/05/28 05:54:55;;;;;;;13.73;6.27;;;;;;;;;;5092186;28;20036;-69
2021/05/28 05:57:20;;;;;;;11.97;5.40;;;;;;;;;;5090894;28;20024;-69
2021/05/28 05:59:46;;;;;;;13.73;5.53;;;;;;;;;;5088594;28;20403;-70
2021/05/28 06:02:11;;;;;;;11.87;4.47;;;;;;;;;;5087932;28;20127;-69
2021/05/28 06:04:36;;;;;;;15.13;5.80;;;;;;;;;;5084206;28;20033;-69
2021/05/28 06:07:02;;;;;;;13.93;4.67;;;;;;;;;;5085234;28;20024;-69
2021/05/28 06:09:27;;;;;;;8.83;4.23;;;;;;;;;;5085656;28;20016;-69
2021/05/28 06:11:54;;;;;;;10.80;4.30;;;;;;;;;;5090882;28;20061;-69
2021/05/28 06:14:19;;;;;;;12.97;4.70;;;;;;;;;;5094330;28;20045;-68
2021/05/28 06:16:44;;;;;;;10.13;4.83;;;;;;;;;;5088348;28;20388;-68
2021/05/28 06:19:10;;;;;;;11.33;5.10;;;;;;;;;;5086147;28;20169;-68
2021/05/28 06:21:35;;;;;;;12.93;4.70;;;;;;;;;;5083927;28;20020;-68
2021/05/28 06:24:01;;;;;;;11.80;5.10;;;;;;;;;;5090483;28;20031;-69
2021/05/28 06:26:26;;;;;;;12.90;5.53;;;;;;;;;;5091786;28;20032;-70
2021/05/28 06:28:51;;;;;;;8.63;4.10;;;;;;;;;;5092135;28;20016;-75
2021/05/28 06:31:17;;;;;;;8.17;4.03;;;;;;;;;;5093684;28;20054;-78
2021/05/28 06:33:42;;;;;;;10.50;3.93;;;;;;;;;;5094570;28;20027;-77
2021/05/28 06:36:08;;;;;;;9.10;3.83;;;;;;;;;;5091344;28;20020;-78
2021/05/28 06:38:34;;;;;;;9.27;3.70;;;;;;;;;;5092022;28;20034;-78
2021/05/28 06:40:59;;;;;;;6.90;3.53;;;;;;;;;;5095307;28;20055;-79
2021/05/28 06:43:24;;;;;;;7.47;3.30;;;;;;;;;;5093121;28;20027;-78
2021/05/28 06:45:50;;;;;;;6.10;3.20;;;;;;;;;;5094070;28;20115;-79
2021/05/28 06:48:15;;;;;;;8.87;3.37;;;;;;;;;;5093163;28;20085;-79
2021/05/28 06:50:41;;;;;;;9.33;3.40;;;;;;;;;;5095064;28;20027;-79
2021/05/28 06:53:07;;;;;;;6.40;3.33;;;;;;;;;;5093415;28;20016;-79
2021/05/28 06:55:32;;;;;;;6.63;3.60;;;;;;;;;;5094480;28;20039;-78
2021/05/28 06:57:58;;;;;;;5.90;3.23;;;;;;;;;;5094024;28;20675;-78
2021/05/28 07:00:23;;;;;;;6.25;3.00;;;;;;;;;;5093834;28;20031;-78
2021/05/28 07:02:48;;;;;;;8.82;2.88;;;;;;;;;;5093565;28;20052;-79
2021/05/28 07:05:14;;;;;;;6.50;3.28;;;;;;;;;;5094985;28;20062;-78
2021/05/28 07:07:40;;;;;;;7.47;3.20;;;;;;;;;;5093957;28;20028;-78
2021/05/28 07:10:06;;;;;;;10.60;3.42;;;;;;;;;;5094060;28;20032;-78
2021/05/28 07:12:31;;;;;;;7.28;3.05;;;;;;;;;;5094017;28;20419;-77
2021/05/28 07:14:56;;;;;;;6.00;2.97;;;;;;;;;;5093280;28;20048;-79
2021/05/28 07:17:22;;;;;;;5.10;2.80;;;;;;;;;;5094441;28;20483;-79
2021/05/28 07:19:47;;;;;;;5.85;2.88;;;;;;;;;;5093572;28;20035;-78
2021/05/28 07:22:12;;;;;;;7.15;2.90;;;;;;;;;;5093430;28;20027;-77
2021/05/28 07:24:38;;;;;;;6.75;2.85;;;;;;;;;;5093250;28;20032;-78
2021/05/28 07:27:03;;;;;;;5.25;3.10;;;;;;;;;;5091391;28;20050;-78
2021/05/28 07:29:29;;;;;;;6.25;2.70;;;;;;;;;;5093274;28;20073;-78
2021/05/28 07:31:54;;;;;;;6.43;2.50;;;;;;;;;;5094114;28;20081;-78
2021/05/28 07:34:21;;;;;;;6.43;2.75;;;;;;;;;;5094004;28;20020;-79
2021/05/28 07:36:46;;;;;;;8.57;3.00;;;;;;;;;;5093609;28;20079;-78
2021/05/28 07:39:11;;;;;;;5.82;2.67;;;;;;;;;;5093761;28;20485;-78
2021/05/28 07:41:37;;;;;;;8.77;3.08;;;;;;;;;;5088350;28;20044;-78
2021/05/28 07:44:03;;;;;;;7.68;2.80;;;;;;;;;;5092189;28;20027;-77
2021/05/28 07:46:28;;;;;;;7.35;2.75;;;;;;;;;;5091733;28;20035;-78
2021/05/28 07:48:54;;;;;;;6.38;2.67;;;;;;;;;;5092963;28;20203;-77
2021/05/28 07:51:19;;;;;;;6.28;2.40;;;;;;;;;;5092511;28;20020;-79
2021/05/28 07:53:44;;;;;;;8.25;2.97;;;;;;;;;;5093408;28;20108;-78
2021/05/28 07:56:10;;;;;;;5.32;2.65;;;;;;;;;;5092841;28;20061;-78
2021/05/28 07:58:35;;;;;;;8.20;2.60;;;;;;;;;;5074570;28;20055;-79
2021/05/28 08:01:00;;;;;;;7.95;2.45;;;;;;;;;;5076440;28;20047;-81
2021/05/28 08:03:26;;;;;;;6.63;2.80;;;;;;;;;;5093291;28;20046;-79
2021/05/28 08:05:51;;;;;;;6.35;2.30;;;;;;;;;;5091223;28;20112;-76
2021/05/28 08:08:22;;;;;;;6.10;2.30;;;;;;;;;;5091719;28;20032;-74
2021/05/28 08:10:48;;;;;;;4.47;2.00;;;;;;;;;;5089763;28;20493;-75
2021/05/28 08:13:13;;;;;;;6.00;2.22;;;;;;;;;;5089778;28;20374;-74
2021/05/28 08:15:38;;;;;;;6.30;2.75;;;;;;;;;;5090769;28;20050;-72
2021/05/28 08:18:04;;;;;;;7.13;2.40;;;;;;;;;;5091376;28;20487;-76
2021/05/28 08:20:30;;;;;;;5.80;2.45;;;;;;;;;;5091095;28;20069;-74
2021/05/28 08:22:58;;;;;;;7.53;2.63;;;;;;;;;;5073407;28;20028;-75
2021/05/28 08:25:23;;;;;;;9.00;2.50;;;;;;;;;;5089556;28;20053;-75
2021/05/28 08:27:49;;;;;;;5.72;2.13;;;;;;;;;;5090294;28;20162;-75
2021/05/28 08:30:14;;;;;;;7.68;2.45;;;;;;;;;;5090222;28;20492;-76
2021/05/28 08:32:40;;;;;;;4.60;1.65;;;;;;;;;;5091168;28;20020;-74
2021/05/28 08:35:06;;;;;;;5.93;2.00;;;;;;;;;;5090646;28;20023;-75
2021/05/28 08:37:31;;;;;;;5.22;2.00;;;;;;;;;;5088785;28;20689;-76
2021/05/28 08:39:56;;;;;;;5.30;2.10;;;;;;;;;;5089446;28;20035;-75
2021/05/28 08:42:22;;;;;;;5.28;2.00;;;;;;;;;;5091428;28;20096;-75
2021/05/28 08:44:50;;;;;;;5.13;2.20;;;;;;;;;;5090714;28;20054;-75
2021/05/28 08:47:16;;;;;;;5.25;2.00;;;;;;;;;;5091143;28;20028;-76
2021/05/28 08:49:48;;;;;;;7.15;1.77;;;;;;;;;;5090745;28;20016;-75
2021/05/28 08:52:13;;;;;;;3.92;1.90;;;;;;;;;;5091699;28;20468;-76
2021/05/28 08:54:39;;;;;;;3.53;1.55;;;;;;;;;;5090034;28;20063;-76
2021/05/28 08:57:04;;;;;;;5.20;1.58;;;;;;;;;;5091520;28;20311;-76
2021/05/28 08:59:29;;;;;;;5.68;2.08;;;;;;;;;;5090454;28;20020;-75
2021/05/28 09:01:55;;;;;;;4.15;1.90;;;;;;;;;;5090586;28;20020;-75
2021/05/28 09:04:20;;;;;;;8.10;2.03;;;;;;;;;;5090213;28;20032;-76
2021/05/28 09:06:46;;;;;;;6.63;2.10;;;;;;;;;;5086926;28;20076;-76
2021/05/28 09:09:16;;;;;;;5.35;1.90;;;;;;;;;;5089873;28;20024;-76
2021/05/28 09:11:59;;;;;;;3.25;1.27;;;;;;;;;;5091111;28;20065;-75
2021/05/28 09:14:32;;;;;;;4.57;1.50;;;;;;;;;;5090619;28;20068;-76
2021/05/28 09:16:57;;;;;;;3.78;1.13;;;;;;;;;;5091625;28;20100;-76
2021/05/28 09:19:23;;;;;;;3.08;0.95;;;;;;;;;;5094771;28;20024;-76
2021/05/28 09:21:59;;;;;;;4.57;1.25;;;;;;;;;;5093407;28;20502;-76
2021/05/28 09:24:50;;;;;;;2.88;1.08;;;;;;;;;;5093412;28;20102;-77
2021/05/28 09:27:18;;;;;;;7.05;1.30;;;;;;;;;;5085068;28;20169;-76
2021/05/28 09:30:02;;;;;;;4.70;1.42;;;;;;;;;;5076188;28;20024;-77
2021/05/28 09:32:29;;;;;;;4.63;1.20;;;;;;;;;;5094573;28;20047;-77
2021/05/28 09:34:54;;;;;;;2.72;1.00;;;;;;;;;;5091911;28;20421;-74
2021/05/28 09:37:19;;;;;;;2.85;1.25;;;;;;;;;;5092287;28;20024;-74
2021/05/28 09:39:44;;;;;;;2.75;1.20;;;;;;;;;;5093285;28;20027;-74
2021/05/28 09:42:10;;;;;;;3.20;1.20;;;;;;;;;;5094472;28;20023;-75
2021/05/28 09:44:36;;;;;;;3.20;1.48;;;;;;;;;;5093184;28;20024;-76
2021/05/28 09:47:04;;;;;;;3.35;1.30;;;;;;;;;;5075561;28;20024;-77
2021/05/28 09:49:31;;;;;;;3.67;1.02;;;;;;;;;;5094215;28;20027;-73
2021/05/28 09:52:11;;;;;;;2.55;1.00;;;;;;;;;;5093480;28;20372;-71
2021/05/28 09:54:37;;;;;;;4.78;1.27;;;;;;;;;;5092448;28;20055;-73
2021/05/28 09:57:03;;;;;;;4.75;1.10;;;;;;;;;;5093869;28;20118;-74
2021/05/28 09:59:41;;;;;;;3.63;1.00;;;;;;;;;;5093377;28;20024;-74
2021/05/28 10:02:08;;;;;;;3.58;1.15;;;;;;;;;;5089502;28;20026;-76
2021/05/28 10:04:33;;;;;;;3.45;1.10;;;;;;;;;;5092755;28;20483;-75
2021/05/28 10:06:58;;;;;;;2.47;0.77;;;;;;;;;;5092934;28;20185;-71
2021/05/28 10:09:24;;;;;;;2.20;0.80;;;;;;;;;;5091464;28;20055;-69
2021/05/28 10:11:49;;;;;;;3.67;1.20;;;;;;;;;;5092996;28;20491;-71
2021/05/28 10:14:15;;;;;;;3.72;1.08;;;;;;;;;;5092960;28;20024;-71
2021/05/28 10:16:40;;;;;;;3.45;1.10;;;;;;;;;;5092652;28;20051;-71
2021/05/28 10:19:05;;;;;;;3.22;1.38;;;;;;;;;;5092473;28;20012;-70
2021/05/28 10:21:31;;;;;;;3.58;1.58;;;;;;;;;;5093023;28;20456;-69
2021/05/28 10:23:58;;;;;;;4.13;1.50;;;;;;;;;;5092398;28;20384;-71
2021/05/28 10:26:35;;;;;;;5.07;2.15;;;;;;;;;;5087691;28;20111;-72
2021/05/28 10:29:01;;;;;;;3.70;1.85;;;;;;;;;;5089071;28;20031;-71
2021/05/28 10:31:45;;;;;;;7.30;1.75;;;;;;;;;;5092205;28;20549;-71
2021/05/28 10:34:10;;;;;;;4.85;1.50;;;;;;;;;;5091855;28;20035;-73
2021/05/28 10:36:40;;;;;;;4.20;1.20;;;;;;;;;;5090764;28;20539;-71
2021/05/28 10:39:06;;;;;;;4.00;1.20;;;;;;;;;;5093018;28;20034;-71
2021/05/28 10:41:32;;;;;;;7.15;1.40;;;;;;;;;;5073702;28;20478;-71
2021/05/28 10:43:59;;;;;;;4.53;1.17;;;;;;;;;;5092034;28;20028;-70
2021/05/28 10:46:25;;;;;;;4.93;1.25;;;;;;;;;;5091738;28;20035;-72
2021/05/28 10:48:56;;;;;;;4.80;1.73;;;;;;;;;;5081559;28;20468;-70
2021/05/28 10:51:41;;;;;;;4.97;1.52;;;;;;;;;;5091434;28;20365;-69
2021/05/28 10:54:06;;;;;;;6.28;1.45;;;;;;;;;;5091790;28;20024;-69
2021/05/28 10:56:37;;;;;;;4.13;1.90;;;;;;;;;;5090620;28;20019;-70
2021/05/28 10:59:09;;;;;;;2.97;1.45;;;;;;;;;;5092467;28;20024;-70
2021/05/28 11:01:48;;;;;;;3.42;1.23;;;;;;;;;;5090763;28;20108;-70
2021/05/28 11:04:13;;;;;;;8.48;1.55;;;;;;;;;;5090440;28;20127;-71
2021/05/28 11:06:58;;;;;;;4.25;1.65;;;;;;;;;;5086716;28;20102;-70
2021/05/28 11:09:42;;;;;;;4.10;1.60;;;;;;;;;;5090119;28;20024;-70
2021/05/28 11:12:08;;;;;;;4.80;1.60;;;;;;;;;;5084348;28;20032;-70
2021/05/28 11:14:37;;;;;;;5.35;1.42;;;;;;;;;;5087199;28;20020;-70
2021/05/28 11:17:03;;;;;;;7.60;1.88;;;;;;;;;;5089033;28;20028;-70
2021/05/28 11:19:30;;;;;;;5.88;1.42;;;;;;;;;;5091199;28;20028;-71
2021/05/28 11:21:57;;;;;;;2.92;1.17;;;;;;;;;;5090345;28;20549;-71
2021/05/28 11:24:40;;;;;;;7.05;1.48;;;;;;;;;;5089982;28;20034;-70
2021/05/28 11:27:34;;;;;;;2.83;1.35;;;;;;;;;;5090265;28;20028;-70
2021/05/28 11:30:03;;;;;;;8.55;1.40;;;;;;;;;;5086734;28;20020;-69
2021/05/28 11:32:35;;;;;;;2.92;1.30;;;;;;;;;;5091020;28;20034;-69
2021/05/28 11:35:16;;;;;;;3.90;1.48;;;;;;;;;;5089245;28;20133;-69
2021/05/28 11:37:51;;;;;;;4.50;1.42;;;;;;;;;;5091022;28;20028;-68
2021/05/28 11:40:24;;;;;;;4.53;1.52;;;;;;;;;;5090926;28;20026;-69
2021/05/28 11:42:50;;;;;;;3.30;1.40;;;;;;;;;;5091568;28;20059;-68
2021/05/28 11:45:17;;;;;;;4.18;1.58;;;;;;;;;;5090574;28;20031;-69
2021/05/28 11:47:42;;;;;;;4.68;1.70;;;;;;;;;;5091794;28;20086;-69
2021/05/28 11:50:12;;;;;;;4.70;1.30;;;;;;;;;;5088762;28;20050;-69
2021/05/28 11:52:37;;;;;;;3.22;1.58;;;;;;;;;;5085510;28;20349;-69
2021/05/28 11:55:04;;;;;;;3.65;1.30;;;;;;;;;;5087281;28;20023;-69
2021/05/28 11:57:29;;;;;;;4.38;1.73;;;;;;;;;;5087421;28;20078;-69
2021/05/28 11:59:57;;;;;;;4.00;1.40;;;;;;;;;;5076166;28;20029;-69
2021/05/28 12:02:43;;;;;;;5.45;1.65;;;;;;;;;;5084292;28;20094;-70
2021/05/28 12:05:15;;;;;;;3.20;1.08;;;;;;;;;;5085031;28;20441;-70
2021/05/28 12:07:41;;;;;;;4.60;1.20;;;;;;;;;;5090185;28;20598;-69
2021/05/28 12:10:07;;;;;;;2.10;1.10;;;;;;;;;;5088343;28;20027;-69
2021/05/28 12:12:51;;;;;;;1.50;0.80;;;;;;;;;;5082401;28;20039;-69
2021/05/28 12:15:17;;;;;;;2.70;0.80;;;;;;;;;;5078540;28;20043;-70
2021/05/28 12:17:43;;;;;;;3.20;1.15;;;;;;;;;;5089178;28;20028;-68
2021/05/28 12:20:15;;;;;;;3.95;1.08;;;;;;;;;;5089287;28;20043;-68
2021/05/28 12:22:56;;;;;;;2.55;0.90;;;;;;;;;;5088262;28;20107;-67
2021/05/28 12:25:21;;;;;;;3.92;1.17;;;;;;;;;;5089864;28;20020;-67
2021/05/28 12:27:46;;;;;;;3.42;1.00;;;;;;;;;;5090009;28;20085;-67
2021/05/28 12:30:14;;;;;;;1.95;1.00;;;;;;;;;;5090138;28;20020;-67
2021/05/28 12:32:39;;;;;;;3.83;1.20;;;;;;;;;;5089978;28;20016;-66
2021/05/28 12:35:05;;;;;;;3.88;1.17;;;;;;;;;;5089147;28;20077;-66
2021/05/28 12:37:30;;;;;;;2.53;1.40;;;;;;;;;;5086828;28;20106;-66
2021/05/28 12:40:05;;;;;;;3.17;1.45;;;;;;;;;;5090039;28;20028;-66
2021/05/28 12:42:31;;;;;;;3.63;1.00;;;;;;;;;;5088574;28;20481;-65
2021/05/28 12:45:09;;;;;;;4.70;1.00;;;;;;;;;;5091134;28;20095;-66
2021/05/28 12:47:44;;;;;;;6.70;1.50;;;;;;;;;;5089471;28;20383;-66
2021/05/28 12:50:26;;;;;;;5.60;1.40;;;;;;;;;;5090707;28;20362;-66
2021/05/28 12:52:52;;;;;;;7.07;1.33;;;;;;;;;;5091791;28;20016;-65
2021/05/28 12:55:25;;;;;;;8.03;1.07;;;;;;;;;;5093544;28;20118;-65
2021/05/28 12:57:50;;;;;;;4.53;1.50;;;;;;;;;;5089335;28;20027;-65
2021/05/28 13:00:28;;;;;;;2.60;0.80;;;;;;;;;;5085778;28;20081;-66
2021/05/28 13:02:53;;;;;;;3.13;1.00;;;;;;;;;;5079871;28;20043;-64
2021/05/28 13:05:19;;;;;;;4.20;1.00;;;;;;;;;;5094236;28;20384;-64
2021/05/28 13:07:44;;;;;;;4.63;1.20;;;;;;;;;;5094547;28;20027;-64
2021/05/28 13:10:17;;;;;;;3.37;1.30;;;;;;;;;;5090674;28;20016;-64
2021/05/28 13:12:42;;;;;;;5.47;1.20;;;;;;;;;;5081274;28;20023;-64
2021/05/28 13:15:08;;;;;;;4.33;1.17;;;;;;;;;;5090235;28;20016;-64
2021/05/28 13:17:33;;;;;;;2.20;0.90;;;;;;;;;;5094241;28;20035;-64
2021/05/28 13:20:04;;;;;;;3.03;0.80;;;;;;;;;;5093893;28;20054;-64
2021/05/28 13:22:48;;;;;;;3.87;0.87;;;;;;;;;;5094278;28;20047;-64
2021/05/28 13:25:31;;;;;;;1.97;1.10;;;;;;;;;;5088614;28;20035;-64
2021/05/28 13:28:02;;;;;;;2.73;0.87;;;;;;;;;;5090630;28;20043;-64
2021/05/28 13:30:35;;;;;;;1.93;1.00;;;;;;;;;;5092311;28;20070;-64
2021/05/28 13:33:19;;;;;;;3.23;0.90;;;;;;;;;;5093783;28;20311;-63
2021/05/28 13:35:44;;;;;;;2.20;0.80;;;;;;;;;;5090023;28;20023;-64
2021/05/28 13:38:10;;;;;;;2.03;0.93;;;;;;;;;;5093845;28;20060;-64
2021/05/28 13:40:35;;;;;;;2.83;1.20;;;;;;;;;;5093674;28;20085;-64
2021/05/28 13:43:01;;;;;;;3.50;1.13;;;;;;;;;;5093953;28;20395;-64
2021/05/28 13:45:26;;;;;;;3.07;1.30;;;;;;;;;;5092958;28;20032;-65
2021/05/28 13:47:52;;;;;;;3.87;1.60;;;;;;;;;;5093213;28;20383;-65
2021/05/28 13:50:17;;;;;;;6.10;1.80;;;;;;;;;;5092053;28;20106;-65
2021/05/28 13:52:42;;;;;;;7.77;2.07;;;;;;;;;;5094129;28;20017;-65
2021/05/28 13:55:08;;;;;;;4.37;1.80;;;;;;;;;;5092886;28;20016;-65
2021/05/28 13:57:33;;;;;;;5.07;1.80;;;;;;;;;;5092308;28;20028;-64
2021/05/28 13:59:58;;;;;;;5.53;2.40;;;;;;;;;;5093516;28;20480;-65
2021/05/28 14:02:24;;;;;;;7.07;2.33;;;;;;;;;;5092751;28;20114;-65
2021/05/28 14:04:49;;;;;;;6.43;2.30;;;;;;;;;;5091987;28;20036;-64
2021/05/28 14:07:15;;;;;;;5.23;2.17;;;;;;;;;;5085443;28;20480;-65
2021/05/28 14:09:40;;;;;;;4.80;1.97;;;;;;;;;;5081971;28;20078;-65
2021/05/28 14:12:06;;;;;;;7.83;2.90;;;;;;;;;;5088502;28;20020;-64
2021/05/28 14:14:31;;;;;;;5.03;1.83;;;;;;;;;;5091808;28;20024;-70
2021/05/28 14:16:56;;;;;;;3.80;1.47;;;;;;;;;;5090666;28;20031;-64
2021/05/28 14:19:21;;;;;;;5.73;1.90;;;;;;;;;;5088128;28;20039;-63
2021/05/28 14:21:47;;;;;;;7.43;1.60;;;;;;;;;;5092412;28;20058;-63
2021/05/28 14:24:12;;;;;;;2.85;1.13;;;;;;;;;;5085484;28;20384;-63
2021/05/28 14:26:40;;;;;;;2.40;1.30;;;;;;;;;;5084943;28;20039;-64
2021/05/28 14:29:06;;;;;;;4.85;1.27;;;;;;;;;;5090438;28;20024;-64
2021/05/28 14:31:31;;;;;;;2.50;1.10;;;;;;;;;;5093116;28;20104;-64
2021/05/28 14:33:59;;;;;;;3.10;1.00;;;;;;;;;;5090752;28;20031;-65
2021/05/28 14:36:32;;;;;;;3.20;1.40;;;;;;;;;;5091815;28;20024;-65